Time;durP1;ratioP1;P1;durP2;ratioP2;P2;SDS_P1;SDS_P2;PMS_P1;PMS_P2;Temp;Humidity;BMP_temperature;BMP_pressure;BME280_temperature;BME280_humidity;BME280_pressure;Samples;Min_cycle;Max_cycle;Signal;HPM_P1;HPM_P2
2021/11/26 00:02:01;;;;;;;10.48;2.28;;;;;;;6.70;100.00;100852.56;6157126;23;20005;-85
2021/11/26 00:04:26;;;;;;;6.80;1.58;;;;;;;6.69;100.00;100848.19;6131864;23;20012;-85
2021/11/26 00:06:52;;;;;;;7.63;1.88;;;;;;;6.71;100.00;100856.91;6182699;23;20009;-85
2021/11/26 00:09:18;;;;;;;12.80;2.17;;;;;;;6.63;100.00;100841.59;6107848;23;20017;-85
2021/11/26 00:11:43;;;;;;;9.02;1.50;;;;;;;6.71;100.00;100844.38;6156450;23;20469;-84
2021/11/26 00:14:16;;;;;;;11.48;2.13;;;;;;;6.61;100.00;100827.56;6182965;23;20040;-85
2021/11/26 00:16:43;;;;;;;14.73;1.85;;;;;;;6.58;100.00;100818.00;6156889;23;20009;-84
2021/11/26 00:19:09;;;;;;;21.63;2.53;;;;;;;6.69;100.00;100818.78;6131595;23;20009;-84
2021/11/26 00:21:37;;;;;;;5.30;1.08;;;;;;;6.64;100.00;100823.75;6156778;23;20396;-83
2021/11/26 00:24:05;;;;;;;16.10;2.15;;;;;;;6.56;100.00;100814.66;6108529;23;20337;-84
2021/11/26 00:26:31;;;;;;;17.52;2.60;;;;;;;6.46;100.00;100775.63;6132752;23;20421;-86
2021/11/26 00:28:56;;;;;;;13.40;1.85;;;;;;;6.47;100.00;100806.69;6132767;23;20001;-83
2021/11/26 00:31:22;;;;;;;23.33;3.15;;;;;;;6.44;100.00;100789.13;6156198;23;20012;-84
2021/11/26 00:33:48;;;;;;;17.73;3.45;;;;;;;6.49;100.00;100781.50;6182947;23;20237;-84
2021/11/26 00:36:14;;;;;;;18.08;2.97;;;;;;;6.51;100.00;100778.66;6132079;23;20009;-85
2021/11/26 00:38:40;;;;;;;22.20;4.25;;;;;;;6.58;100.00;100793.13;6132323;23;20037;-83
2021/11/26 00:41:05;;;;;;;4.22;1.45;;;;;;;6.54;100.00;100770.38;6156916;23;20009;-84
2021/11/26 00:43:31;;;;;;;8.70;1.38;;;;;;;6.52;100.00;100742.97;6156434;23;20389;-83
2021/11/26 00:45:57;;;;;;;15.85;2.30;;;;;;;6.50;100.00;100743.09;6131903;23;20092;-83
2021/11/26 00:48:23;;;;;;;14.57;2.42;;;;;;;6.63;100.00;100742.75;6156697;23;20020;-84
2021/11/26 00:50:50;;;;;;;8.95;2.35;;;;;;;6.63;100.00;100728.56;6182878;23;20016;-83
2021/11/26 00:53:15;;;;;;;22.73;3.80;;;;;;;6.71;100.00;100720.63;6156295;23;20067;-83
2021/11/26 00:55:41;;;;;;;23.58;3.03;;;;;;;6.74;100.00;100717.66;6107640;23;20371;-85
2021/11/26 00:58:07;;;;;;;18.73;2.95;;;;;;;6.75;100.00;100714.00;6131400;23;20036;-84
2021/11/26 01:00:35;;;;;;;19.30;2.88;;;;;;;6.79;100.00;100708.19;6182877;23;20005;-84
2021/11/26 01:03:02;;;;;;;23.05;2.78;;;;;;;6.82;100.00;100694.50;6182239;23;20088;-86
2021/11/26 01:05:27;;;;;;;13.02;2.60;;;;;;;6.88;100.00;100685.06;6107278;23;20005;-84
2021/11/26 01:07:53;;;;;;;11.45;3.08;;;;;;;6.89;100.00;100680.53;6156156;23;20008;-84
2021/11/26 01:10:20;;;;;;;14.40;2.60;;;;;;;6.93;100.00;100673.88;6107401;23;20016;-84
2021/11/26 01:12:46;;;;;;;6.50;2.47;;;;;;;6.78;100.00;100666.41;6107599;23;20004;-84
2021/11/26 01:15:15;;;;;;;12.82;3.28;;;;;;;6.71;100.00;100664.50;6155544;23;20009;-83
2021/11/26 01:17:43;;;;;;;13.05;3.17;;;;;;;6.78;100.00;100668.25;6132193;23;20008;-82
2021/11/26 01:20:13;;;;;;;11.07;2.25;;;;;;;6.73;100.00;100665.22;6156744;23;20075;-83
2021/11/26 01:22:38;;;;;;;13.30;2.85;;;;;;;6.71;100.00;100630.59;6106758;23;20009;-83
2021/11/26 01:25:06;;;;;;;9.95;1.58;;;;;;;6.66;100.00;100634.75;6131384;23;20001;-84
2021/11/26 01:27:33;;;;;;;13.93;2.47;;;;;;;6.61;100.00;100624.50;6132005;23;20009;-84
2021/11/26 01:29:58;;;;;;;13.23;1.67;;;;;;;6.61;100.00;100611.16;6131008;23;20015;-83
2021/11/26 01:32:24;;;;;;;16.13;2.08;;;;;;;6.59;100.00;100599.81;6156297;23;20004;-84
2021/11/26 01:34:50;;;;;;;18.45;2.75;;;;;;;6.55;100.00;100587.72;6131883;23;20318;-86
2021/11/26 01:37:15;;;;;;;21.77;4.40;;;;;;;6.54;100.00;100597.56;6155427;23;20020;-85
2021/11/26 01:39:41;;;;;;;25.48;3.10;;;;;;;6.54;100.00;100586.06;6156164;23;20067;-83
2021/11/26 01:42:07;;;;;;;8.50;1.73;;;;;;;6.55;100.00;100572.53;6156056;23;20417;-83
2021/11/26 01:44:36;;;;;;;5.75;1.27;;;;;;;6.56;100.00;100568.88;6131816;23;20075;-83
2021/11/26 01:47:02;;;;;;;6.35;1.42;;;;;;;6.64;100.00;100564.59;6156199;23;20036;-83
2021/11/26 01:49:28;;;;;;;10.25;2.45;;;;;;;6.77;100.00;100543.63;6131333;23;20484;-84
2021/11/26 01:51:54;;;;;;;19.15;2.17;;;;;;;6.85;100.00;100566.91;6155372;23;20001;-83
2021/11/26 01:54:19;;;;;;;15.20;2.30;;;;;;;6.89;100.00;100560.28;6131329;23;20028;-83
2021/11/26 01:56:45;;;;;;;14.77;2.13;;;;;;;6.90;100.00;100560.09;6156698;23;20089;-83
2021/11/26 01:59:10;;;;;;;17.42;2.67;;;;;;;6.83;100.00;100527.84;6155184;23;20011;-88
2021/11/26 02:01:37;;;;;;;15.93;2.05;;;;;;;6.89;100.00;100529.03;6156467;23;20009;-84
2021/11/26 02:04:03;;;;;;;9.80;1.75;;;;;;;6.85;100.00;100546.38;6131455;23;20057;-87
2021/11/26 02:06:29;;;;;;;13.95;2.03;;;;;;;6.85;100.00;100534.84;6156314;23;20009;-83
2021/11/26 02:08:59;;;;;;;5.25;1.08;;;;;;;6.85;100.00;100530.31;6131346;23;20005;-86
2021/11/26 02:11:25;;;;;;;6.97;2.00;;;;;;;6.87;100.00;100528.34;6131499;23;20009;-83
2021/11/26 02:13:51;;;;;;;9.55;1.75;;;;;;;6.86;100.00;100517.84;6155318;23;20005;-86
2021/11/26 02:16:16;;;;;;;9.77;2.20;;;;;;;6.83;100.00;100502.94;6155736;23;20029;-86
2021/11/26 02:18:46;;;;;;;12.18;1.52;;;;;;;6.81;100.00;100505.75;6131384;23;20009;-83
2021/11/26 02:21:12;;;;;;;13.80;5.38;;;;;;;6.76;100.00;100500.06;6131313;23;20005;-83
2021/11/26 02:23:39;;;;;;;8.48;1.13;;;;;;;6.77;100.00;100495.53;6155269;23;20079;-84
2021/11/26 02:26:04;;;;;;;7.03;1.25;;;;;;;6.77;100.00;100491.06;6106874;23;20017;-83
2021/11/26 02:28:30;;;;;;;9.00;1.20;;;;;;;6.77;100.00;100490.19;6181541;23;20013;-83
2021/11/26 02:30:56;;;;;;;7.22;1.13;;;;;;;6.72;100.00;100471.13;6155377;23;20125;-84
2021/11/26 02:33:22;;;;;;;4.95;1.23;;;;;;;6.78;100.00;100481.19;6156178;23;20428;-83
2021/11/26 02:35:52;;;;;;;11.93;1.85;;;;;;;6.78;100.00;100462.50;6156888;23;20326;-83
2021/11/26 02:38:18;;;;;;;26.83;2.50;;;;;;;6.81;100.00;100454.16;6157336;23;20460;-84
2021/11/26 02:40:44;;;;;;;8.57;2.03;;;;;;;6.84;100.00;100453.84;6158330;23;20008;-82
2021/11/26 02:43:11;;;;;;;11.88;2.00;;;;;;;6.84;100.00;100443.16;6158597;23;20004;-82
2021/11/26 02:45:39;;;;;;;12.57;1.52;;;;;;;6.92;100.00;100450.38;6133368;23;20472;-84
2021/11/26 02:48:06;;;;;;;4.78;1.20;;;;;;;6.91;100.00;100416.63;6157194;23;20040;-83
2021/11/26 02:50:32;;;;;;;14.93;2.05;;;;;;;7.00;100.00;100439.72;6108531;23;20009;-83
2021/11/26 02:52:59;;;;;;;5.68;1.30;;;;;;;7.09;100.00;100421.84;6133094;23;20413;-82
2021/11/26 02:55:27;;;;;;;5.95;1.60;;;;;;;7.12;100.00;100411.69;6132721;23;20005;-83
2021/11/26 02:57:53;;;;;;;9.60;2.15;;;;;;;7.15;100.00;100403.34;6132548;23;20421;-84
2021/11/26 03:00:22;;;;;;;9.48;2.08;;;;;;;7.17;100.00;100405.84;6158164;23;20004;-82
2021/11/26 03:02:48;;;;;;;12.95;1.42;;;;;;;7.17;100.00;100388.00;6157663;23;20008;-84
2021/11/26 03:05:14;;;;;;;8.68;1.38;;;;;;;7.21;100.00;100397.34;6132602;23;20432;-85
2021/11/26 03:07:40;;;;;;;9.68;1.85;;;;;;;7.24;100.00;100390.84;6184237;23;20008;-84
2021/11/26 03:10:07;;;;;;;12.10;2.05;;;;;;;7.28;100.00;100384.16;6131824;23;20024;-82
2021/11/26 03:12:33;;;;;;;9.95;1.40;;;;;;;7.28;100.00;100370.81;6132826;23;20010;-84
2021/11/26 03:15:04;;;;;;;9.32;1.50;;;;;;;7.37;100.00;100363.63;6132420;23;20005;-83
2021/11/26 03:17:32;;;;;;;12.13;2.47;;;;;;;7.39;100.00;100356.28;6133428;23;20445;-83
2021/11/26 03:19:58;;;;;;;16.73;1.77;;;;;;;7.46;100.00;100339.41;6133672;23;20001;-83
2021/11/26 03:22:24;;;;;;;8.15;1.27;;;;;;;7.49;100.00;100325.69;6157927;23;20005;-83
2021/11/26 03:24:50;;;;;;;13.55;1.95;;;;;;;7.58;100.00;100328.38;6133956;23;20051;-82
2021/11/26 03:27:15;;;;;;;17.85;2.53;;;;;;;7.60;100.00;100318.34;6158079;23;20013;-82
2021/11/26 03:29:41;;;;;;;11.57;1.50;;;;;;;7.62;100.00;100316.31;6158377;23;20147;-82
2021/11/26 03:32:06;;;;;;;12.02;1.63;;;;;;;7.66;100.00;100313.13;6158040;23;20073;-82
2021/11/26 03:34:32;;;;;;;13.00;2.10;;;;;;;7.70;100.00;100311.81;6182988;23;20036;-83
2021/11/26 03:36:58;;;;;;;15.23;2.72;;;;;;;7.70;100.00;100310.97;6157279;23;20015;-82
2021/11/26 03:39:23;;;;;;;11.80;1.85;;;;;;;7.69;100.00;100287.88;6157952;23;20001;-83
2021/11/26 03:41:49;;;;;;;13.20;1.90;;;;;;;7.69;100.00;100278.00;6157939;23;20425;-84
2021/11/26 03:44:15;;;;;;;23.23;2.42;;;;;;;7.67;100.00;100268.47;6158049;23;20016;-82
2021/11/26 03:46:40;;;;;;;6.80;1.30;;;;;;;7.71;100.00;100270.66;6183854;23;20032;-83
2021/11/26 03:49:06;;;;;;;13.48;3.55;;;;;;;7.75;100.00;100259.59;6157438;23;20055;-83
2021/11/26 03:51:33;;;;;;;8.80;2.70;;;;;;;7.87;100.00;100267.13;6133212;23;20413;-83
2021/11/26 03:54:01;;;;;;;11.73;1.88;;;;;;;7.77;100.00;100255.75;6108648;23;20019;-85
2021/11/26 03:56:27;;;;;;;8.05;1.90;;;;;;;7.84;100.00;100267.47;6108603;23;20031;-83
2021/11/26 03:58:53;;;;;;;12.43;2.10;;;;;;;7.84;100.00;100267.47;6156550;23;20438;-86
2021/11/26 04:01:18;;;;;;;12.55;1.98;;;;;;;7.80;100.00;100236.69;6132999;23;20016;-85
2021/11/26 04:03:44;;;;;;;11.73;1.63;;;;;;;7.76;100.00;100262.13;6156588;23;20332;-85
2021/11/26 04:06:10;;;;;;;4.60;1.85;;;;;;;7.85;100.00;100245.03;6156017;23;20005;-83
2021/11/26 04:08:36;;;;;;;10.13;2.00;;;;;;;7.81;100.00;100211.59;6108722;23;20019;-82
2021/11/26 04:11:01;;;;;;;6.45;3.10;;;;;;;7.90;100.00;100215.91;6156933;23;20005;-84
2021/11/26 04:13:27;;;;;;;7.78;1.30;;;;;;;7.87;100.00;100210.06;6157441;23;20474;-84
2021/11/26 04:15:54;;;;;;;11.70;1.65;;;;;;;7.95;100.00;100223.44;6156905;23;20005;-85
2021/11/26 04:18:21;;;;;;;9.43;2.35;;;;;;;7.98;100.00;100216.91;6157010;23;20013;-83
2021/11/26 04:20:50;;;;;;;6.03;1.48;;;;;;;7.82;100.00;100207.91;6131520;23;20047;-83
2021/11/26 04:23:20;;;;;;;14.45;2.25;;;;;;;7.77;100.00;100202.22;6156163;23;20005;-84
2021/11/26 04:25:46;;;;;;;6.95;1.30;;;;;;;7.76;100.00;100192.53;6155881;23;20055;-84
2021/11/26 04:28:11;;;;;;;11.73;1.98;;;;;;;7.84;100.00;100187.16;6181039;23;20005;-86
2021/11/26 04:30:37;;;;;;;11.25;2.45;;;;;;;7.89;100.00;100181.31;6157051;23;20013;-85
2021/11/26 04:33:03;;;;;;;5.80;0.90;;;;;;;7.85;100.00;100167.41;6131955;23;20044;-84
2021/11/26 04:35:28;;;;;;;12.15;2.50;;;;;;;7.96;100.00;100168.88;6156702;23;20009;-83
2021/11/26 04:37:54;;;;;;;9.65;2.17;;;;;;;8.03;100.00;100158.31;6156343;23;20040;-85
2021/11/26 04:40:20;;;;;;;10.77;1.95;;;;;;;8.07;100.00;100160.47;6183023;23;20000;-84
2021/11/26 04:42:46;;;;;;;16.75;2.00;;;;;;;8.06;100.00;100158.78;6156103;23;20066;-83
2021/11/26 04:45:13;;;;;;;12.10;2.05;;;;;;;8.11;100.00;100126.16;6131950;23;20013;-84
2021/11/26 04:47:39;;;;;;;9.27;2.22;;;;;;;8.23;100.00;100153.34;6107340;23;20012;-83
2021/11/26 04:50:06;;;;;;;7.18;1.67;;;;;;;8.28;100.00;100143.81;6156428;23;20063;-83
2021/11/26 04:52:32;;;;;;;14.48;3.60;;;;;;;8.22;100.00;100123.06;6131969;23;20009;-84
2021/11/26 04:55:01;;;;;;;15.68;1.98;;;;;;;8.24;100.00;100137.13;6182533;23;20008;-85
2021/11/26 04:57:26;;;;;;;7.85;1.98;;;;;;;8.22;100.00;100120.38;6155582;23;20026;-84
2021/11/26 04:59:52;;;;;;;12.20;2.85;;;;;;;8.19;100.00;100115.38;6131370;23;20001;-84
2021/11/26 05:02:20;;;;;;;10.93;1.90;;;;;;;8.27;100.00;100126.06;6107366;23;20012;-83
2021/11/26 05:04:46;;;;;;;6.28;1.52;;;;;;;8.29;100.00;100115.19;6130822;23;20005;-84
2021/11/26 05:07:13;;;;;;;12.18;2.53;;;;;;;8.28;100.00;100105.44;6156929;23;19997;-83
2021/11/26 05:09:39;;;;;;;20.27;3.40;;;;;;;8.27;100.00;100098.44;6182251;23;20012;-83
2021/11/26 05:12:05;;;;;;;16.15;3.17;;;;;;;8.38;100.00;100100.69;6107182;23;20005;-83
2021/11/26 05:14:32;;;;;;;16.10;3.15;;;;;;;8.43;100.00;100100.22;6131643;23;20004;-86
2021/11/26 05:16:58;;;;;;;12.23;2.58;;;;;;;8.51;100.00;100100.16;6155927;23;20432;-86
2021/11/26 05:19:24;;;;;;;15.50;3.20;;;;;;;8.46;100.00;100092.63;6131372;23;20393;-82
2021/11/26 05:21:49;;;;;;;13.23;3.08;;;;;;;8.50;100.00;100102.00;6182245;23;20059;-84
2021/11/26 05:24:15;;;;;;;7.35;2.03;;;;;;;8.47;100.00;100080.09;6156604;23;20080;-83
2021/11/26 05:26:41;;;;;;;6.50;1.50;;;;;;;8.39;100.00;100089.03;6156298;23;20024;-83
2021/11/26 05:29:08;;;;;;;18.05;1.77;;;;;;;8.26;100.00;100083.41;6131580;23;20337;-85
2021/11/26 05:31:36;;;;;;;11.38;1.98;;;;;;;8.15;100.00;100073.91;6156008;23;20015;-84
2021/11/26 05:34:06;;;;;;;9.93;2.58;;;;;;;8.04;100.00;100066.25;6156043;23;20113;-84
2021/11/26 05:36:33;;;;;;;9.18;1.63;;;;;;;8.01;100.00;100072.81;6107170;23;20013;-86
2021/11/26 05:39:00;;;;;;;11.90;1.60;;;;;;;7.99;100.00;100066.81;6106827;23;20009;-83
2021/11/26 05:41:25;;;;;;;12.80;2.75;;;;;;;7.93;100.00;100040.72;6131856;23;20009;-83
2021/11/26 05:43:51;;;;;;;10.20;1.52;;;;;;;7.98;100.00;100061.63;6131479;23;20020;-84
2021/11/26 05:46:17;;;;;;;8.93;2.27;;;;;;;7.91;100.00;100029.34;6130818;23;20016;-85
2021/11/26 05:48:42;;;;;;;19.93;2.80;;;;;;;7.89;100.00;100056.31;6153997;23;20502;-85
2021/11/26 05:51:11;;;;;;;6.60;1.75;;;;;;;7.85;100.00;100060.34;6156320;23;20076;-85
2021/11/26 05:53:37;;;;;;;6.82;2.05;;;;;;;7.82;100.00;100055.34;6155469;23;20011;-84
2021/11/26 05:56:03;;;;;;;7.43;1.83;;;;;;;7.82;100.00;100068.72;6131247;23;20024;-84
2021/11/26 05:58:29;;;;;;;9.55;2.53;;;;;;;7.74;100.00;100033.16;6131769;23;20360;-84
2021/11/26 06:00:55;;;;;;;5.32;1.58;;;;;;;7.63;100.00;100031.69;6131060;23;20001;-84
2021/11/26 06:03:21;;;;;;;8.55;1.33;;;;;;;7.59;100.00;100046.41;6131799;23;20013;-84
2021/11/26 06:05:46;;;;;;;7.45;1.77;;;;;;;7.55;100.00;100053.16;6182459;23;20080;-85
2021/11/26 06:08:12;;;;;;;16.38;1.58;;;;;;;7.52;100.00;100051.66;6131117;23;20005;-86
2021/11/26 06:10:38;;;;;;;8.57;1.85;;;;;;;7.53;100.00;100057.81;6132694;23;20004;-84
2021/11/26 06:13:03;;;;;;;8.05;1.00;;;;;;;7.61;100.00;100065.81;6133413;23;20031;-87
2021/11/26 06:15:29;;;;;;;12.50;2.35;;;;;;;7.70;100.00;100060.25;6157067;23;20064;-87
2021/11/26 06:17:55;;;;;;;8.07;2.72;;;;;;;7.71;100.00;100053.06;6158055;23;20032;-85
2021/11/26 06:20:22;;;;;;;8.40;1.73;;;;;;;7.80;100.00;100053.84;6158074;23;20035;-85
2021/11/26 06:22:49;;;;;;;9.73;1.15;;;;;;;7.85;100.00;100046.13;6157982;23;20005;-86
2021/11/26 06:25:16;;;;;;;11.23;2.03;;;;;;;7.85;100.00;100044.28;6133541;23;20036;-84
2021/11/26 06:27:43;;;;;;;7.85;2.42;;;;;;;7.77;100.00;100028.28;6132977;23;20593;-87
2021/11/26 06:30:11;;;;;;;8.80;2.15;;;;;;;7.82;100.00;100041.13;6157321;23;20005;-85
2021/11/26 06:32:38;;;;;;;14.27;1.75;;;;;;;7.77;100.00;100038.97;6133959;23;20005;-84
2021/11/26 06:35:04;;;;;;;11.68;1.60;;;;;;;7.76;100.00;100037.31;6109524;23;20001;-87
2021/11/26 06:37:30;;;;;;;7.78;1.58;;;;;;;7.81;100.00;100040.31;6131908;23;20071;-85
2021/11/26 06:39:55;;;;;;;8.50;1.38;;;;;;;7.87;100.00;100036.91;6184088;23;20005;-86
2021/11/26 06:42:21;;;;;;;5.95;1.20;;;;;;;7.88;100.00;100040.44;6157381;23;20005;-85
2021/11/26 06:44:47;;;;;;;9.35;1.67;;;;;;;7.81;100.00;100036.81;6157102;23;20329;-84
2021/11/26 06:47:13;;;;;;;9.77;1.60;;;;;;;7.75;100.00;100043.66;6132998;23;20472;-90
2021/11/26 06:49:38;;;;;;;9.30;1.45;;;;;;;7.62;100.00;100046.94;6183384;23;20013;-85
2021/11/26 06:52:04;;;;;;;16.45;2.55;;;;;;;7.58;100.00;100028.72;6183881;23;20001;-85
2021/11/26 06:54:33;;;;;;;9.15;1.30;;;;;;;7.54;100.00;100027.38;6157480;23;20372;-84
2021/11/26 06:56:59;;;;;;;11.38;1.95;;;;;;;7.67;100.00;100041.88;6183761;23;20025;-85
2021/11/26 06:59:25;;;;;;;12.32;2.65;;;;;;;7.70;100.00;100043.38;6133518;23;20016;-83
2021/11/26 07:01:51;;;;;;;9.48;1.55;;;;;;;7.68;100.00;100045.41;6158961;23;20005;-84
2021/11/26 07:04:17;;;;;;;4.95;1.70;;;;;;;7.60;100.00;100048.94;6109651;23;20032;-87
2021/11/26 07:06:42;;;;;;;9.90;1.40;;;;;;;7.45;100.00;100048.81;6132732;23;20009;-87
2021/11/26 07:09:08;;;;;;;12.05;1.23;;;;;;;7.41;100.00;100050.19;6158713;23;20008;-86
2021/11/26 07:11:34;;;;;;;9.38;1.75;;;;;;;7.32;100.00;100045.84;6108808;23;20061;-86
2021/11/26 07:14:00;;;;;;;22.80;1.98;;;;;;;7.24;100.00;100035.19;6184210;23;20013;-86
2021/11/26 07:16:28;;;;;;;13.32;1.60;;;;;;;7.18;100.00;100034.03;6157252;23;20029;-86
2021/11/26 07:18:56;;;;;;;7.63;1.48;;;;;;;7.14;100.00;100043.38;6108552;23;20507;-85
2021/11/26 07:21:22;;;;;;;12.85;1.60;;;;;;;7.05;100.00;100031.91;6132434;23;20328;-85
2021/11/26 07:23:48;;;;;;;12.13;2.20;;;;;;;6.90;100.00;100000.69;6183456;23;20080;-86
2021/11/26 07:26:13;;;;;;;3.28;1.00;;;;;;;6.80;100.00;100007.06;6132367;23;20439;-85
2021/11/26 07:28:39;;;;;;;7.45;1.85;;;;;;;6.73;100.00;100002.56;6132208;23;20012;-84
2021/11/26 07:31:05;;;;;;;3.03;1.42;;;;;;;6.70;100.00;100008.25;6132425;23;20001;-85
2021/11/26 07:33:31;;;;;;;7.53;1.58;;;;;;;6.65;100.00;100024.78;6132212;23;20005;-87
2021/11/26 07:35:56;;;;;;;7.68;1.50;;;;;;;6.69;100.00;100034.13;6157724;23;20036;-85
2021/11/26 07:38:25;;;;;;;4.82;1.77;;;;;;;6.71;100.00;100031.28;6182109;23;20028;-85
2021/11/26 07:41:00;;;;;;;0.82;0.52;;;;;;;6.77;100.00;100051.97;6158435;23;20014;-85
2021/11/26 07:43:26;;;;;;;5.68;0.90;;;;;;;6.68;100.00;100037.81;6183276;23;20008;-85
2021/11/26 07:45:51;;;;;;;6.55;1.73;;;;;;;6.71;100.00;100052.66;6157086;23;20040;-85
2021/11/26 07:48:17;;;;;;;3.75;0.95;;;;;;;6.67;100.00;100040.63;6132172;23;20067;-84
2021/11/26 07:50:43;;;;;;;3.25;1.13;;;;;;;6.74;100.00;100047.81;6156855;23;20495;-85
2021/11/26 07:53:09;;;;;;;4.78;1.08;;;;;;;6.77;100.00;100052.84;6131758;23;20092;-84
2021/11/26 07:55:34;;;;;;;9.48;2.65;;;;;;;6.79;100.00;100039.28;6155490;23;20601;-85
2021/11/26 07:58:00;;;;;;;3.13;1.77;;;;;;;6.85;100.00;100046.63;6155951;23;20080;-85
2021/11/26 08:00:26;;;;;;;1.83;1.42;;;;;;;6.91;100.00;100043.28;6131950;23;20429;-84
2021/11/26 08:02:53;;;;;;;9.88;1.60;;;;;;;6.92;100.00;100046.78;6183045;23;20005;-85
2021/11/26 08:05:18;;;;;;;12.43;2.92;;;;;;;6.99;100.00;100064.66;6131504;23;20044;-84
2021/11/26 08:07:44;;;;;;;4.22;1.27;;;;;;;6.86;100.00;100026.94;6132040;23;20488;-86
2021/11/26 08:10:10;;;;;;;13.73;2.08;;;;;;;6.75;100.00;100022.78;6155581;23;20091;-85
2021/11/26 08:12:37;;;;;;;8.48;2.30;;;;;;;6.74;100.00;100044.31;6156103;23;20013;-85
2021/11/26 08:15:06;;;;;;;10.32;1.25;;;;;;;6.63;100.00;100055.34;6131338;23;20011;-84
2021/11/26 08:17:32;;;;;;;10.70;1.48;;;;;;;6.62;100.00;100067.03;6131667;23;20008;-85
2021/11/26 08:19:57;;;;;;;5.97;1.92;;;;;;;6.58;100.00;100069.19;6183312;23;20005;-84
2021/11/26 08:22:23;;;;;;;10.27;1.58;;;;;;;6.56;100.00;100065.84;6157600;23;20020;-84
2021/11/26 08:24:49;;;;;;;10.13;2.60;;;;;;;6.45;100.00;100042.97;6133089;23;20008;-83
2021/11/26 08:27:14;;;;;;;3.50;0.75;;;;;;;6.58;100.00;100063.84;6157535;23;20100;-85
2021/11/26 08:29:40;;;;;;;12.32;1.80;;;;;;;6.49;100.00;100051.50;6183613;23;20001;-85
2021/11/26 08:32:06;;;;;;;8.38;1.33;;;;;;;6.48;100.00;100052.50;6132533;23;20545;-86
2021/11/26 08:34:31;;;;;;;21.80;3.72;;;;;;;6.52;100.00;100052.00;6156682;23;20034;-85
2021/11/26 08:36:57;;;;;;;15.52;2.17;;;;;;;6.53;100.00;100061.66;6181685;23;20096;-85
2021/11/26 08:39:23;;;;;;;10.50;1.70;;;;;;;6.51;100.00;100044.13;6155909;23;20430;-85
2021/11/26 08:41:48;;;;;;;8.57;1.02;;;;;;;6.56;100.00;100077.38;6157623;23;20286;-85
2021/11/26 08:44:14;;;;;;;17.17;1.77;;;;;;;6.61;97.66;100055.50;6183366;23;20321;-86
2021/11/26 08:46:40;;;;;;;9.77;1.20;;;;;;;6.68;98.21;100048.50;6132547;23;20009;-85
2021/11/26 08:49:05;;;;;;;2.10;1.08;;;;;;;6.80;94.66;100065.84;6155214;23;20024;-86
2021/11/26 08:51:37;;;;;;;6.60;1.30;;;;;;;6.89;94.39;100068.53;6183028;23;20011;-84
2021/11/26 08:54:03;;;;;;;13.82;1.92;;;;;;;6.91;93.34;100056.66;6133323;23;20425;-85
2021/11/26 08:56:28;;;;;;;10.10;1.77;;;;;;;6.97;94.22;100055.16;6132656;23;20009;-85
2021/11/26 08:58:55;;;;;;;9.75;1.85;;;;;;;7.04;92.02;100056.97;6183293;23;20004;-85
2021/11/26 09:01:21;;;;;;;13.32;1.70;;;;;;;7.13;91.38;100064.97;6133094;23;20437;-86
2021/11/26 09:03:49;;;;;;;6.63;1.48;;;;;;;7.15;91.82;100065.63;6157312;23;20059;-88
2021/11/26 09:06:16;;;;;;;5.72;1.75;;;;;;;7.13;91.51;100067.63;6132934;23;20001;-85
2021/11/26 09:08:42;;;;;;;12.45;1.65;;;;;;;7.22;89.68;100074.63;6132628;23;20005;-85
2021/11/26 09:11:07;;;;;;;6.18;1.65;;;;;;;7.25;88.71;100056.41;6132332;23;20440;-87
2021/11/26 09:13:33;;;;;;;15.63;2.20;;;;;;;7.21;88.27;100054.25;6157477;23;20005;-84
2021/11/26 09:15:59;;;;;;;13.65;2.30;;;;;;;7.20;87.41;100053.44;6107167;23;20015;-85
2021/11/26 09:18:24;;;;;;;2.92;1.00;;;;;;;7.07;87.49;100062.97;6132413;23;20052;-85
2021/11/26 09:20:52;;;;;;;6.60;1.92;;;;;;;6.80;89.10;100048.97;6180940;23;20036;-87
2021/11/26 09:23:21;;;;;;;2.47;0.90;;;;;;;6.65;93.19;100042.66;6156643;23;20013;-86
2021/11/26 09:25:48;;;;;;;7.78;1.67;;;;;;;6.78;90.08;100056.34;6132022;23;20456;-86
2021/11/26 09:28:14;;;;;;;11.20;1.88;;;;;;;6.81;92.96;100056.81;6131591;23;20566;-84
2021/11/26 09:30:41;;;;;;;6.78;1.20;;;;;;;6.95;91.62;100060.63;6107310;23;20322;-85
2021/11/26 09:33:06;;;;;;;14.07;2.50;;;;;;;7.08;90.94;100057.44;6132338;23;20016;-86
2021/11/26 09:35:32;;;;;;;7.03;1.38;;;;;;;7.17;91.63;100063.59;6132155;23;20008;-84
2021/11/26 09:38:01;;;;;;;5.65;1.00;;;;;;;7.16;91.87;100073.47;6156844;23;20001;-85
2021/11/26 09:40:28;;;;;;;5.45;1.52;;;;;;;7.05;91.13;100065.81;6157593;23;20093;-85
2021/11/26 09:42:54;;;;;;;8.57;2.03;;;;;;;7.03;88.80;100057.13;6156841;23;20008;-83
2021/11/26 09:45:22;;;;;;;18.88;1.95;;;;;;;6.92;91.46;100054.81;6107751;23;20088;-85
2021/11/26 09:47:52;;;;;;;10.30;1.98;;;;;;;6.85;89.34;100054.63;6156884;23;20001;-86
2021/11/26 09:50:22;;;;;;;14.77;2.72;;;;;;;6.84;88.62;100044.97;6157149;23;20013;-86
2021/11/26 09:52:48;;;;;;;3.75;1.65;;;;;;;6.78;90.50;100051.00;6131978;23;20420;-85
2021/11/26 09:55:17;;;;;;;10.20;2.17;;;;;;;6.95;86.75;100057.97;6157144;23;20079;-84
2021/11/26 09:57:46;;;;;;;8.10;1.42;;;;;;;7.15;86.75;100060.28;6156490;23;20027;-84
2021/11/26 10:00:14;;;;;;;10.80;1.88;;;;;;;7.42;85.17;100057.19;6155318;23;20012;-83
2021/11/26 10:02:54;;;;;;;4.05;1.38;;;;;;;7.64;81.87;100076.16;6104869;23;20009;-84
2021/11/26 10:05:20;;;;;;;6.60;1.55;;;;;;;7.71;79.96;100059.25;6107207;23;20011;-87
2021/11/26 10:07:51;;;;;;;14.60;1.70;;;;;;;7.79;77.90;100074.44;6132355;23;20040;-85
2021/11/26 10:10:26;;;;;;;;;;;;;;;7.88;75.50;100069.88;6131692;23;20371;-90
2021/11/26 10:13:11;;;;;;;;;;;;;;;7.82;75.39;100058.03;6107844;23;20302;-88
2021/11/26 10:15:42;;;;;;;;;;;;;;;7.81;75.47;100076.94;6151935;23;19916;-85
2021/11/26 10:18:18;;;;;;;;;;;;;;;7.82;74.14;100065.22;6132052;23;19915;-89
2021/11/26 10:20:55;;;;;;;9.55;1.92;;;;;;;7.73;74.74;100043.03;6155572;23;20426;-84
2021/11/26 10:23:23;;;;;;;9.63;1.55;;;;;;;7.68;74.62;100053.41;6156322;23;20013;-84
2021/11/26 10:25:49;;;;;;;8.18;1.70;;;;;;;7.63;74.45;100048.59;6156091;23;20001;-85
2021/11/26 10:28:15;;;;;;;4.22;1.55;;;;;;;7.66;75.62;100063.47;6132206;23;20005;-83
2021/11/26 10:30:44;;;;;;;5.10;1.67;;;;;;;7.83;75.93;100062.38;6155976;23;20136;-84
2021/11/26 10:33:25;;;;;;;14.53;3.40;;;;;;;8.14;74.35;100057.00;6156284;23;20016;-85
2021/11/26 10:36:00;;;;;;;13.95;2.30;;;;;;;8.49;72.07;100059.31;6107318;23;20005;-84
2021/11/26 10:38:32;;;;;;;19.40;2.92;;;;;;;8.44;70.73;100061.69;6156532;23;20009;-85
2021/11/26 10:41:02;;;;;;;10.30;3.20;;;;;;;8.39;71.17;100064.91;6131375;23;20329;-85
2021/11/26 10:49:06;;;;;;;14.93;3.00;;;;;;;8.44;71.48;100061.69;6131516;23;20012;-84
2021/11/26 10:51:54;;;;;;;18.43;3.20;;;;;;;8.17;71.14;100039.75;6113056;23;20067;-85
2021/11/26 10:57:38;;;;;;;23.20;3.15;;;;;;;8.56;70.76;100039.66;6137312;23;20075;-86
2021/11/26 11:00:19;;;;;;;7.57;1.67;;;;;;;8.85;70.79;100051.47;6110925;23;20005;-84
2021/11/26 11:02:52;;;;;;;17.65;2.97;;;;;;;9.01;68.97;100042.44;6109287;23;20076;-91
2021/11/26 11:05:42;;;;;;;19.83;3.88;;;;;;;9.07;68.68;100040.84;6158180;23;20001;-85
2021/11/26 11:08:20;;;;;;;13.13;2.60;;;;;;;8.98;69.14;100042.78;6153091;23;20009;-85
2021/11/26 11:10:46;;;;;;;23.75;4.40;;;;;;;9.16;68.40;100045.97;6133233;23;20012;-86
2021/11/26 11:13:15;;;;;;;22.67;3.85;;;;;;;9.32;67.52;100046.81;6108804;23;20009;-88
2021/11/26 11:15:44;;;;;;;16.92;3.85;;;;;;;9.58;65.28;100046.31;6157830;23;20005;-86
2021/11/26 11:18:12;;;;;;;18.88;2.80;;;;;;;9.73;64.06;100051.66;6108640;23;20005;-87
2021/11/26 11:20:39;;;;;;;11.30;3.03;;;;;;;9.65;63.18;100029.25;6158211;23;20005;-87
2021/11/26 11:23:08;;;;;;;37.28;3.20;;;;;;;9.90;62.02;100043.22;6108509;23;20040;-84
2021/11/26 11:25:35;;;;;;;19.70;4.38;;;;;;;10.34;61.29;100027.97;6108458;23;20460;-86
2021/11/26 11:28:06;;;;;;;14.48;3.08;;;;;;;10.04;59.84;100038.81;6157339;23;20009;-86
2021/11/26 11:30:32;;;;;;;13.73;3.40;;;;;;;9.72;60.43;100036.59;6108774;23;20013;-85
2021/11/26 11:32:58;;;;;;;13.48;2.58;;;;;;;9.58;59.87;100031.06;6132601;23;20393;-85